sensor_id;sensor_type;location;lat;lon;timestamp;temperature;humidity
25280;DHT22;13225;47.804;12.116;2024-01-10T00:01:34;-4.80;99.90
25280;DHT22;13225;47.804;12.116;2024-01-10T00:03:59;-4.80;99.90
25280;DHT22;13225;47.804;12.116;2024-01-10T00:06:25;-4.80;99.90
25280;DHT22;13225;47.804;12.116;2024-01-10T00:08:50;-4.80;99.90
25280;DHT22;13225;47.804;12.116;2024-01-10T00:11:16;-4.80;99.90
25280;DHT22;13225;47.804;12.116;2024-01-10T00:13:42;-4.70;99.90
25280;DHT22;13225;47.804;12.116;2024-01-10T00:16:07;-4.70;99.90
25280;DHT22;13225;47.804;12.116;2024-01-10T00:18:33;-4.80;99.90
25280;DHT22;13225;47.804;12.116;2024-01-10T00:20:59;-4.70;99.90
25280;DHT22;13225;47.804;12.116;2024-01-10T00:23:25;-4.70;99.90
25280;DHT22;13225;47.804;12.116;2024-01-10T00:25:50;-4.70;99.90
25280;DHT22;13225;47.804;12.116;2024-01-10T00:28:16;-4.80;99.90
25280;DHT22;13225;47.804;12.116;2024-01-10T00:30:45;-4.70;99.90
25280;DHT22;13225;47.804;12.116;2024-01-10T00:33:13;-4.80;99.90
25280;DHT22;13225;47.804;12.116;2024-01-10T00:35:38;-4.70;99.90
25280;DHT22;13225;47.804;12.116;2024-01-10T00:38:04;-4.80;99.90
25280;DHT22;13225;47.804;12.116;2024-01-10T00:40:29;-4.80;99.90
25280;DHT22;13225;47.804;12.116;2024-01-10T00:42:55;-4.80;99.90
25280;DHT22;13225;47.804;12.116;2024-01-10T00:45:21;-4.90;99.90
25280;DHT22;13225;47.804;12.116;2024-01-10T00:47:48;-4.90;99.90
25280;DHT22;13225;47.804;12.116;2024-01-10T00:50:14;-4.80;99.90
25280;DHT22;13225;47.804;12.116;2024-01-10T00:52:39;-4.80;99.90
25280;DHT22;13225;47.804;12.116;2024-01-10T00:55:05;-4.80;99.90
25280;DHT22;13225;47.804;12.116;2024-01-10T00:57:31;-4.80;99.90
25280;DHT22;13225;47.804;12.116;2024-01-10T00:59:56;-4.80;99.90
25280;DHT22;13225;47.804;12.116;2024-01-10T01:02:22;-4.80;99.90
25280;DHT22;13225;47.804;12.116;2024-01-10T01:04:48;-4.80;99.90
25280;DHT22;13225;47.804;12.116;2024-01-10T01:07:13;-4.80;99.90
25280;DHT22;13225;47.804;12.116;2024-01-10T01:09:39;-4.80;99.90
25280;DHT22;13225;47.804;12.116;2024-01-10T01:12:05;-4.70;99.90
25280;DHT22;13225;47.804;12.116;2024-01-10T01:14:30;-4.70;99.90
25280;DHT22;13225;47.804;12.116;2024-01-10T01:16:56;-4.70;99.90
25280;DHT22;13225;47.804;12.116;2024-01-10T01:19:21;-4.70;99.90
25280;DHT22;13225;47.804;12.116;2024-01-10T01:21:47;-4.70;99.90
25280;DHT22;13225;47.804;12.116;2024-01-10T01:24:13;-4.80;99.90
25280;DHT22;13225;47.804;12.116;2024-01-10T01:26:38;-4.80;99.90
25280;DHT22;13225;47.804;12.116;2024-01-10T01:29:04;-4.80;99.90
25280;DHT22;13225;47.804;12.116;2024-01-10T01:31:30;-4.80;99.90
25280;DHT22;13225;47.804;12.116;2024-01-10T01:33:55;-4.80;99.90
25280;DHT22;13225;47.804;12.116;2024-01-10T01:36:21;-4.80;99.90
25280;DHT22;13225;47.804;12.116;2024-01-10T01:38:46;-4.80;99.90
25280;DHT22;13225;47.804;12.116;2024-01-10T01:41:12;-4.80;99.90
25280;DHT22;13225;47.804;12.116;2024-01-10T01:43:40;-4.80;99.90
25280;DHT22;13225;47.804;12.116;2024-01-10T01:46:06;-4.70;99.90
25280;DHT22;13225;47.804;12.116;2024-01-10T01:48:33;-4.70;99.90
25280;DHT22;13225;47.804;12.116;2024-01-10T01:51:02;-4.70;99.90
25280;DHT22;13225;47.804;12.116;2024-01-10T01:53:28;-4.70;99.90
25280;DHT22;13225;47.804;12.116;2024-01-10T01:55:54;-4.80;99.90
25280;DHT22;13225;47.804;12.116;2024-01-10T01:58:21;-4.90;99.90
25280;DHT22;13225;47.804;12.116;2024-01-10T02:00:47;-4.80;99.90
25280;DHT22;13225;47.804;12.116;2024-01-10T02:03:13;-4.80;99.90
25280;DHT22;13225;47.804;12.116;2024-01-10T02:05:39;-4.80;99.90
25280;DHT22;13225;47.804;12.116;2024-01-10T02:08:04;-4.80;99.90
25280;DHT22;13225;47.804;12.116;2024-01-10T02:10:30;-4.80;99.90
25280;DHT22;13225;47.804;12.116;2024-01-10T02:12:56;-4.90;99.90
25280;DHT22;13225;47.804;12.116;2024-01-10T02:15:22;-4.80;99.90
25280;DHT22;13225;47.804;12.116;2024-01-10T02:17:47;-4.90;99.90
25280;DHT22;13225;47.804;12.116;2024-01-10T02:20:14;-4.80;99.90
25280;DHT22;13225;47.804;12.116;2024-01-10T02:22:43;-4.80;99.90
25280;DHT22;13225;47.804;12.116;2024-01-10T02:25:10;-4.80;99.90
25280;DHT22;13225;47.804;12.116;2024-01-10T02:27:39;-4.80;99.90
25280;DHT22;13225;47.804;12.116;2024-01-10T02:30:06;-4.90;99.90
25280;DHT22;13225;47.804;12.116;2024-01-10T02:32:32;-4.90;99.90
25280;DHT22;13225;47.804;12.116;2024-01-10T02:34:58;-4.90;99.90
25280;DHT22;13225;47.804;12.116;2024-01-10T02:37:24;-4.90;99.90
25280;DHT22;13225;47.804;12.116;2024-01-10T02:39:50;-4.80;99.90
25280;DHT22;13225;47.804;12.116;2024-01-10T02:42:16;-4.80;99.90
25280;DHT22;13225;47.804;12.116;2024-01-10T02:44:42;-4.80;99.90
25280;DHT22;13225;47.804;12.116;2024-01-10T02:47:08;-4.80;99.90
25280;DHT22;13225;47.804;12.116;2024-01-10T02:49:33;-4.80;99.90
25280;DHT22;13225;47.804;12.116;2024-01-10T02:51:59;-4.80;99.90
25280;DHT22;13225;47.804;12.116;2024-01-10T02:54:25;-4.90;99.90
25280;DHT22;13225;47.804;12.116;2024-01-10T02:56:50;-4.90;99.90
25280;DHT22;13225;47.804;12.116;2024-01-10T02:59:16;-4.80;99.90
25280;DHT22;13225;47.804;12.116;2024-01-10T03:01:42;-4.80;99.90
25280;DHT22;13225;47.804;12.116;2024-01-10T03:04:07;-4.80;99.90
25280;DHT22;13225;47.804;12.116;2024-01-10T03:06:33;-4.80;99.90
25280;DHT22;13225;47.804;12.116;2024-01-10T03:08:58;-4.80;99.90
25280;DHT22;13225;47.804;12.116;2024-01-10T03:11:24;-4.80;99.90
25280;DHT22;13225;47.804;12.116;2024-01-10T03:14:01;-4.80;99.90
25280;DHT22;13225;47.804;12.116;2024-01-10T03:16:27;-4.80;99.90
25280;DHT22;13225;47.804;12.116;2024-01-10T03:18:52;-4.80;99.90
25280;DHT22;13225;47.804;12.116;2024-01-10T03:21:18;-4.90;99.90
25280;DHT22;13225;47.804;12.116;2024-01-10T03:23:50;-4.80;99.90
25280;DHT22;13225;47.804;12.116;2024-01-10T03:26:16;-4.80;99.90
25280;DHT22;13225;47.804;12.116;2024-01-10T03:28:41;-4.90;99.90
25280;DHT22;13225;47.804;12.116;2024-01-10T03:31:07;-4.80;99.90
25280;DHT22;13225;47.804;12.116;2024-01-10T03:33:33;-4.90;99.90
25280;DHT22;13225;47.804;12.116;2024-01-10T03:35:58;-4.90;99.90
25280;DHT22;13225;47.804;12.116;2024-01-10T03:38:24;-4.90;99.90
25280;DHT22;13225;47.804;12.116;2024-01-10T03:40:49;-5.00;99.90
25280;DHT22;13225;47.804;12.116;2024-01-10T03:43:15;-5.00;99.90
25280;DHT22;13225;47.804;12.116;2024-01-10T03:45:42;-4.90;99.90
25280;DHT22;13225;47.804;12.116;2024-01-10T03:48:08;-4.90;99.90
25280;DHT22;13225;47.804;12.116;2024-01-10T03:50:33;-4.80;99.90
25280;DHT22;13225;47.804;12.116;2024-01-10T03:52:59;-4.80;99.90
25280;DHT22;13225;47.804;12.116;2024-01-10T03:55:25;-4.80;99.90
25280;DHT22;13225;47.804;12.116;2024-01-10T03:57:50;-4.90;99.90
25280;DHT22;13225;47.804;12.116;2024-01-10T04:00:16;-4.90;99.90
25280;DHT22;13225;47.804;12.116;2024-01-10T04:02:42;-5.10;99.90
25280;DHT22;13225;47.804;12.116;2024-01-10T04:05:11;-5.00;99.90
25280;DHT22;13225;47.804;12.116;2024-01-10T04:07:40;-5.00;99.90
25280;DHT22;13225;47.804;12.116;2024-01-10T04:10:07;-5.00;99.90
25280;DHT22;13225;47.804;12.116;2024-01-10T04:12:36;-5.00;99.90
25280;DHT22;13225;47.804;12.116;2024-01-10T04:15:03;-4.90;99.90
25280;DHT22;13225;47.804;12.116;2024-01-10T04:17:29;-4.80;99.90
25280;DHT22;13225;47.804;12.116;2024-01-10T04:19:55;-4.80;99.90
25280;DHT22;13225;47.804;12.116;2024-01-10T04:22:21;-4.80;99.90
25280;DHT22;13225;47.804;12.116;2024-01-10T04:24:46;-4.70;99.90
25280;DHT22;13225;47.804;12.116;2024-01-10T04:27:12;-4.70;99.90
25280;DHT22;13225;47.804;12.116;2024-01-10T04:29:37;-4.70;99.90
25280;DHT22;13225;47.804;12.116;2024-01-10T04:32:03;-4.60;99.90
25280;DHT22;13225;47.804;12.116;2024-01-10T04:34:29;-4.70;99.90
25280;DHT22;13225;47.804;12.116;2024-01-10T04:36:55;-4.60;99.90
25280;DHT22;13225;47.804;12.116;2024-01-10T04:39:20;-4.60;99.90
25280;DHT22;13225;47.804;12.116;2024-01-10T04:41:46;-4.70;99.90
25280;DHT22;13225;47.804;12.116;2024-01-10T04:44:12;-4.70;99.90
25280;DHT22;13225;47.804;12.116;2024-01-10T04:46:37;-4.80;99.90
25280;DHT22;13225;47.804;12.116;2024-01-10T04:49:03;-4.80;99.90
25280;DHT22;13225;47.804;12.116;2024-01-10T04:51:28;-4.80;99.90
25280;DHT22;13225;47.804;12.116;2024-01-10T04:53:54;-4.80;99.90
25280;DHT22;13225;47.804;12.116;2024-01-10T04:56:21;-4.90;99.90
25280;DHT22;13225;47.804;12.116;2024-01-10T04:58:46;-4.90;99.90
25280;DHT22;13225;47.804;12.116;2024-01-10T05:01:12;-5.00;99.90
25280;DHT22;13225;47.804;12.116;2024-01-10T05:03:37;-5.00;99.90
25280;DHT22;13225;47.804;12.116;2024-01-10T05:06:03;-5.00;99.90
25280;DHT22;13225;47.804;12.116;2024-01-10T05:08:30;-5.00;99.90
25280;DHT22;13225;47.804;12.116;2024-01-10T05:10:55;-5.00;99.90
25280;DHT22;13225;47.804;12.116;2024-01-10T05:13:21;-5.20;99.90
25280;DHT22;13225;47.804;12.116;2024-01-10T05:15:46;-5.20;99.90
25280;DHT22;13225;47.804;12.116;2024-01-10T05:18:12;-5.20;99.90
25280;DHT22;13225;47.804;12.116;2024-01-10T05:20:37;-5.20;99.90
25280;DHT22;13225;47.804;12.116;2024-01-10T05:23:03;-5.10;99.90
25280;DHT22;13225;47.804;12.116;2024-01-10T05:25:29;-5.10;99.90
25280;DHT22;13225;47.804;12.116;2024-01-10T05:27:55;-5.20;99.90
25280;DHT22;13225;47.804;12.116;2024-01-10T05:30:20;-5.30;99.90
25280;DHT22;13225;47.804;12.116;2024-01-10T05:32:46;-5.40;99.90
25280;DHT22;13225;47.804;12.116;2024-01-10T05:35:11;-5.40;99.90
25280;DHT22;13225;47.804;12.116;2024-01-10T05:37:37;-5.40;99.90
25280;DHT22;13225;47.804;12.116;2024-01-10T05:40:03;-5.40;99.90
25280;DHT22;13225;47.804;12.116;2024-01-10T05:42:32;-5.50;99.90
25280;DHT22;13225;47.804;12.116;2024-01-10T05:44:59;-5.50;99.90
25280;DHT22;13225;47.804;12.116;2024-01-10T05:47:24;-5.50;99.90
25280;DHT22;13225;47.804;12.116;2024-01-10T05:49:51;-5.50;99.90
25280;DHT22;13225;47.804;12.116;2024-01-10T05:52:18;-5.50;99.90
25280;DHT22;13225;47.804;12.116;2024-01-10T05:54:44;-5.50;99.90
25280;DHT22;13225;47.804;12.116;2024-01-10T05:57:10;-5.50;99.90
25280;DHT22;13225;47.804;12.116;2024-01-10T05:59:36;-5.50;99.90
25280;DHT22;13225;47.804;12.116;2024-01-10T06:02:02;-5.50;99.90
25280;DHT22;13225;47.804;12.116;2024-01-10T06:04:28;-5.50;99.90
25280;DHT22;13225;47.804;12.116;2024-01-10T06:06:58;-5.40;99.90
25280;DHT22;13225;47.804;12.116;2024-01-10T06:09:23;-5.50;99.90
25280;DHT22;13225;47.804;12.116;2024-01-10T06:11:49;-5.50;99.90
25280;DHT22;13225;47.804;12.116;2024-01-10T06:14:15;-5.60;99.90
25280;DHT22;13225;47.804;12.116;2024-01-10T06:16:40;-5.60;99.90
25280;DHT22;13225;47.804;12.116;2024-01-10T06:19:06;-5.70;99.90
25280;DHT22;13225;47.804;12.116;2024-01-10T06:21:32;-5.70;99.90
25280;DHT22;13225;47.804;12.116;2024-01-10T06:23:57;-5.70;99.90
25280;DHT22;13225;47.804;12.116;2024-01-10T06:26:23;-5.70;99.90
25280;DHT22;13225;47.804;12.116;2024-01-10T06:28:48;-5.60;99.90
25280;DHT22;13225;47.804;12.116;2024-01-10T06:31:14;-5.50;99.90
25280;DHT22;13225;47.804;12.116;2024-01-10T06:33:40;-5.10;99.90
25280;DHT22;13225;47.804;12.116;2024-01-10T06:36:05;-5.20;99.90
25280;DHT22;13225;47.804;12.116;2024-01-10T06:38:31;-5.20;99.90
25280;DHT22;13225;47.804;12.116;2024-01-10T06:40:57;-5.20;99.90
25280;DHT22;13225;47.804;12.116;2024-01-10T06:43:22;-5.00;99.90
25280;DHT22;13225;47.804;12.116;2024-01-10T06:45:49;-5.00;99.90
25280;DHT22;13225;47.804;12.116;2024-01-10T06:48:14;-4.90;99.90
25280;DHT22;13225;47.804;12.116;2024-01-10T06:50:40;-4.80;99.90
25280;DHT22;13225;47.804;12.116;2024-01-10T06:53:06;-4.70;99.90
25280;DHT22;13225;47.804;12.116;2024-01-10T06:55:32;-4.70;99.90
25280;DHT22;13225;47.804;12.116;2024-01-10T06:57:58;-4.80;99.90
25280;DHT22;13225;47.804;12.116;2024-01-10T07:00:23;-4.80;99.90
25280;DHT22;13225;47.804;12.116;2024-01-10T07:02:49;-4.80;99.90
25280;DHT22;13225;47.804;12.116;2024-01-10T07:05:15;-4.80;99.90
25280;DHT22;13225;47.804;12.116;2024-01-10T07:07:41;-4.90;99.90
25280;DHT22;13225;47.804;12.116;2024-01-10T07:10:07;-4.90;99.90
25280;DHT22;13225;47.804;12.116;2024-01-10T07:12:34;-4.90;99.90
25280;DHT22;13225;47.804;12.116;2024-01-10T07:15:00;-5.00;99.90
25280;DHT22;13225;47.804;12.116;2024-01-10T07:17:46;-5.00;99.90
25280;DHT22;13225;47.804;12.116;2024-01-10T07:20:12;-5.00;99.90
25280;DHT22;13225;47.804;12.116;2024-01-10T07:22:38;-5.10;99.90
25280;DHT22;13225;47.804;12.116;2024-01-10T07:25:10;-5.20;99.90
25280;DHT22;13225;47.804;12.116;2024-01-10T07:27:40;-5.20;99.90
25280;DHT22;13225;47.804;12.116;2024-01-10T07:30:06;-5.20;99.90
25280;DHT22;13225;47.804;12.116;2024-01-10T07:32:41;-5.20;99.90
25280;DHT22;13225;47.804;12.116;2024-01-10T07:35:08;-5.20;99.90
25280;DHT22;13225;47.804;12.116;2024-01-10T07:37:40;-5.20;99.90
25280;DHT22;13225;47.804;12.116;2024-01-10T07:40:07;-5.20;99.90
25280;DHT22;13225;47.804;12.116;2024-01-10T07:42:37;-5.20;99.90
25280;DHT22;13225;47.804;12.116;2024-01-10T07:45:03;-5.10;99.90
25280;DHT22;13225;47.804;12.116;2024-01-10T07:47:33;-5.10;99.90
25280;DHT22;13225;47.804;12.116;2024-01-10T07:50:05;-5.10;99.90
25280;DHT22;13225;47.804;12.116;2024-01-10T07:52:31;-5.10;99.90
25280;DHT22;13225;47.804;12.116;2024-01-10T07:54:57;-5.00;99.90
25280;DHT22;13225;47.804;12.116;2024-01-10T07:57:23;-5.00;99.90
25280;DHT22;13225;47.804;12.116;2024-01-10T07:59:48;-4.90;99.90
25280;DHT22;13225;47.804;12.116;2024-01-10T08:02:14;-4.80;99.90
25280;DHT22;13225;47.804;12.116;2024-01-10T08:04:39;-4.90;99.90
25280;DHT22;13225;47.804;12.116;2024-01-10T08:07:05;-4.80;99.90
25280;DHT22;13225;47.804;12.116;2024-01-10T08:09:31;-4.70;99.90
25280;DHT22;13225;47.804;12.116;2024-01-10T08:11:56;-4.60;99.90
25280;DHT22;13225;47.804;12.116;2024-01-10T08:14:23;-4.50;99.90
25280;DHT22;13225;47.804;12.116;2024-01-10T08:16:48;-4.30;99.90
25280;DHT22;13225;47.804;12.116;2024-01-10T08:19:14;-4.10;99.90
25280;DHT22;13225;47.804;12.116;2024-01-10T08:21:40;-4.00;99.90
25280;DHT22;13225;47.804;12.116;2024-01-10T08:24:06;-4.00;99.90
25280;DHT22;13225;47.804;12.116;2024-01-10T08:26:31;-3.90;99.90
25280;DHT22;13225;47.804;12.116;2024-01-10T08:28:57;-3.90;99.90
25280;DHT22;13225;47.804;12.116;2024-01-10T08:31:23;-3.80;99.90
25280;DHT22;13225;47.804;12.116;2024-01-10T08:33:49;-3.90;99.90
25280;DHT22;13225;47.804;12.116;2024-01-10T08:36:14;-3.90;99.90
25280;DHT22;13225;47.804;12.116;2024-01-10T08:38:41;-4.00;99.90
25280;DHT22;13225;47.804;12.116;2024-01-10T08:41:08;-4.00;99.90
25280;DHT22;13225;47.804;12.116;2024-01-10T08:43:34;-3.90;99.90
25280;DHT22;13225;47.804;12.116;2024-01-10T08:45:59;-3.90;99.90
25280;DHT22;13225;47.804;12.116;2024-01-10T08:48:26;-3.90;99.90
25280;DHT22;13225;47.804;12.116;2024-01-10T08:50:51;-3.70;99.90
25280;DHT22;13225;47.804;12.116;2024-01-10T08:53:17;-3.70;99.90
25280;DHT22;13225;47.804;12.116;2024-01-10T08:55:42;-3.70;99.90
25280;DHT22;13225;47.804;12.116;2024-01-10T08:58:08;-3.60;99.90
25280;DHT22;13225;47.804;12.116;2024-01-10T09:00:34;-3.60;99.90
25280;DHT22;13225;47.804;12.116;2024-01-10T09:03:00;-3.60;99.90
25280;DHT22;13225;47.804;12.116;2024-01-10T09:05:26;-3.50;99.90
25280;DHT22;13225;47.804;12.116;2024-01-10T09:07:51;-3.50;99.90
25280;DHT22;13225;47.804;12.116;2024-01-10T09:10:19;-3.40;99.90
25280;DHT22;13225;47.804;12.116;2024-01-10T09:12:46;-3.30;99.90
25280;DHT22;13225;47.804;12.116;2024-01-10T09:15:12;-3.30;99.90
25280;DHT22;13225;47.804;12.116;2024-01-10T09:17:42;-3.30;99.90
25280;DHT22;13225;47.804;12.116;2024-01-10T09:20:08;-3.20;99.90
25280;DHT22;13225;47.804;12.116;2024-01-10T09:22:34;-3.20;99.90
25280;DHT22;13225;47.804;12.116;2024-01-10T09:25:00;-3.10;99.90
25280;DHT22;13225;47.804;12.116;2024-01-10T09:27:32;-3.00;99.90
25280;DHT22;13225;47.804;12.116;2024-01-10T09:29:59;-3.00;99.90
25280;DHT22;13225;47.804;12.116;2024-01-10T09:32:27;-2.80;99.90
25280;DHT22;13225;47.804;12.116;2024-01-10T09:34:52;-2.60;99.90
25280;DHT22;13225;47.804;12.116;2024-01-10T09:37:18;-2.50;99.90
25280;DHT22;13225;47.804;12.116;2024-01-10T09:39:44;-2.40;99.90
25280;DHT22;13225;47.804;12.116;2024-01-10T09:42:09;-2.40;99.90
25280;DHT22;13225;47.804;12.116;2024-01-10T09:44:35;-2.50;99.90
25280;DHT22;13225;47.804;12.116;2024-01-10T09:47:00;-2.50;99.90
25280;DHT22;13225;47.804;12.116;2024-01-10T09:49:27;-2.30;99.90
25280;DHT22;13225;47.804;12.116;2024-01-10T09:52:04;-2.10;99.90
25280;DHT22;13225;47.804;12.116;2024-01-10T09:54:30;-2.10;99.90
25280;DHT22;13225;47.804;12.116;2024-01-10T09:56:57;-2.30;99.90
25280;DHT22;13225;47.804;12.116;2024-01-10T09:59:23;-2.30;99.90
25280;DHT22;13225;47.804;12.116;2024-01-10T10:01:51;-2.40;99.90
25280;DHT22;13225;47.804;12.116;2024-01-10T10:04:18;-2.40;99.90
25280;DHT22;13225;47.804;12.116;2024-01-10T10:06:45;-2.30;99.90
25280;DHT22;13225;47.804;12.116;2024-01-10T10:09:12;-2.40;99.90
25280;DHT22;13225;47.804;12.116;2024-01-10T10:11:37;-2.50;99.90
25280;DHT22;13225;47.804;12.116;2024-01-10T10:14:17;-2.40;99.90
25280;DHT22;13225;47.804;12.116;2024-01-10T10:16:43;-2.40;99.90
25280;DHT22;13225;47.804;12.116;2024-01-10T10:19:09;-2.30;99.90
25280;DHT22;13225;47.804;12.116;2024-01-10T10:21:39;-2.30;99.90
25280;DHT22;13225;47.804;12.116;2024-01-10T10:24:05;-2.30;99.90
25280;DHT22;13225;47.804;12.116;2024-01-10T10:26:33;-2.20;99.90
25280;DHT22;13225;47.804;12.116;2024-01-10T10:28:59;-2.10;99.90
25280;DHT22;13225;47.804;12.116;2024-01-10T10:31:25;-2.10;99.90
25280;DHT22;13225;47.804;12.116;2024-01-10T10:33:52;-1.90;99.90
25280;DHT22;13225;47.804;12.116;2024-01-10T10:36:18;-1.80;99.90
25280;DHT22;13225;47.804;12.116;2024-01-10T10:38:46;-1.90;99.90
25280;DHT22;13225;47.804;12.116;2024-01-10T10:41:14;-1.60;99.90
25280;DHT22;13225;47.804;12.116;2024-01-10T10:43:40;-1.40;99.90
25280;DHT22;13225;47.804;12.116;2024-01-10T10:46:10;-1.20;99.90
25280;DHT22;13225;47.804;12.116;2024-01-10T10:48:38;-1.20;99.90
25280;DHT22;13225;47.804;12.116;2024-01-10T10:51:15;-1.10;99.90
25280;DHT22;13225;47.804;12.116;2024-01-10T10:53:43;-1.20;99.90
25280;DHT22;13225;47.804;12.116;2024-01-10T10:56:11;-1.40;99.90
25280;DHT22;13225;47.804;12.116;2024-01-10T10:58:42;-1.60;99.90
25280;DHT22;13225;47.804;12.116;2024-01-10T11:01:11;-1.50;99.90
25280;DHT22;13225;47.804;12.116;2024-01-10T11:03:38;-1.60;99.90
25280;DHT22;13225;47.804;12.116;2024-01-10T11:06:06;-1.70;99.90
25280;DHT22;13225;47.804;12.116;2024-01-10T11:08:38;-1.70;99.90
25280;DHT22;13225;47.804;12.116;2024-01-10T11:11:07;-1.60;99.90
25280;DHT22;13225;47.804;12.116;2024-01-10T11:16:35;-1.70;99.90
25280;DHT22;13225;47.804;12.116;2024-01-10T11:22:10;-1.70;99.90
25280;DHT22;13225;47.804;12.116;2024-01-10T11:24:41;-1.80;99.90
25280;DHT22;13225;47.804;12.116;2024-01-10T11:27:11;-1.80;99.90
25280;DHT22;13225;47.804;12.116;2024-01-10T11:29:40;-1.80;99.90
25280;DHT22;13225;47.804;12.116;2024-01-10T11:32:16;-1.80;99.90
25280;DHT22;13225;47.804;12.116;2024-01-10T11:34:56;-1.70;99.90
25280;DHT22;13225;47.804;12.116;2024-01-10T11:37:23;-1.70;99.90
25280;DHT22;13225;47.804;12.116;2024-01-10T11:39:50;-1.60;99.90
25280;DHT22;13225;47.804;12.116;2024-01-10T11:42:44;-1.30;99.90
25280;DHT22;13225;47.804;12.116;2024-01-10T11:47:59;-1.00;99.90
25280;DHT22;13225;47.804;12.116;2024-01-10T11:50:25;-1.10;99.90
25280;DHT22;13225;47.804;12.116;2024-01-10T11:52:54;-1.00;99.90
25280;DHT22;13225;47.804;12.116;2024-01-10T11:55:51;-0.80;99.90
25280;DHT22;13225;47.804;12.116;2024-01-10T11:58:17;-0.70;99.90
25280;DHT22;13225;47.804;12.116;2024-01-10T12:00:43;-0.60;99.90
25280;DHT22;13225;47.804;12.116;2024-01-10T12:03:12;-0.70;99.90
25280;DHT22;13225;47.804;12.116;2024-01-10T12:05:39;-0.40;99.90
25280;DHT22;13225;47.804;12.116;2024-01-10T12:08:07;-0.30;99.90
25280;DHT22;13225;47.804;12.116;2024-01-10T12:10:33;-0.30;99.90
25280;DHT22;13225;47.804;12.116;2024-01-10T12:13:02;-0.40;99.90
25280;DHT22;13225;47.804;12.116;2024-01-10T12:15:28;-0.30;99.90
25280;DHT22;13225;47.804;12.116;2024-01-10T12:17:55;-0.40;99.90
25280;DHT22;13225;47.804;12.116;2024-01-10T12:20:20;-0.70;99.90
25280;DHT22;13225;47.804;12.116;2024-01-10T12:22:47;-0.80;99.90
25280;DHT22;13225;47.804;12.116;2024-01-10T12:25:12;-0.80;99.90
25280;DHT22;13225;47.804;12.116;2024-01-10T12:27:38;-0.90;99.90
25280;DHT22;13225;47.804;12.116;2024-01-10T12:30:05;-1.00;99.90
25280;DHT22;13225;47.804;12.116;2024-01-10T12:32:31;-1.20;99.90
25280;DHT22;13225;47.804;12.116;2024-01-10T12:35:01;-1.20;99.90
25280;DHT22;13225;47.804;12.116;2024-01-10T12:37:27;-1.20;99.90
25280;DHT22;13225;47.804;12.116;2024-01-10T12:39:53;-1.10;99.90
25280;DHT22;13225;47.804;12.116;2024-01-10T12:42:19;-1.10;99.90
25280;DHT22;13225;47.804;12.116;2024-01-10T12:44:45;-1.00;99.90
25280;DHT22;13225;47.804;12.116;2024-01-10T12:47:21;-0.90;99.90
25280;DHT22;13225;47.804;12.116;2024-01-10T12:49:48;-0.80;99.90
25280;DHT22;13225;47.804;12.116;2024-01-10T12:52:14;-0.70;99.90
25280;DHT22;13225;47.804;12.116;2024-01-10T12:54:40;-0.60;99.90
25280;DHT22;13225;47.804;12.116;2024-01-10T12:57:06;-0.60;99.90
25280;DHT22;13225;47.804;12.116;2024-01-10T12:59:34;-0.60;99.90
25280;DHT22;13225;47.804;12.116;2024-01-10T13:02:00;-0.60;99.90
25280;DHT22;13225;47.804;12.116;2024-01-10T13:04:26;-0.60;99.90
25280;DHT22;13225;47.804;12.116;2024-01-10T13:06:52;-0.60;99.90
25280;DHT22;13225;47.804;12.116;2024-01-10T13:09:17;-0.60;99.90
25280;DHT22;13225;47.804;12.116;2024-01-10T13:11:43;-0.70;99.90
25280;DHT22;13225;47.804;12.116;2024-01-10T13:14:08;-0.90;99.90
25280;DHT22;13225;47.804;12.116;2024-01-10T13:16:35;-0.80;99.90
25280;DHT22;13225;47.804;12.116;2024-01-10T13:19:00;-0.90;99.90
25280;DHT22;13225;47.804;12.116;2024-01-10T13:21:26;-0.90;99.90
25280;DHT22;13225;47.804;12.116;2024-01-10T13:23:52;-0.80;99.90
25280;DHT22;13225;47.804;12.116;2024-01-10T13:26:17;-0.80;99.90
25280;DHT22;13225;47.804;12.116;2024-01-10T13:28:43;-0.90;99.90
25280;DHT22;13225;47.804;12.116;2024-01-10T13:31:09;-1.10;99.90
25280;DHT22;13225;47.804;12.116;2024-01-10T13:33:35;-1.20;99.90
25280;DHT22;13225;47.804;12.116;2024-01-10T13:36:02;-1.10;99.90
25280;DHT22;13225;47.804;12.116;2024-01-10T13:38:28;-1.20;99.90
25280;DHT22;13225;47.804;12.116;2024-01-10T13:40:54;-1.30;99.90
25280;DHT22;13225;47.804;12.116;2024-01-10T13:43:19;-1.40;99.90
25280;DHT22;13225;47.804;12.116;2024-01-10T13:45:45;-1.50;99.90
25280;DHT22;13225;47.804;12.116;2024-01-10T13:48:10;-1.60;99.90
25280;DHT22;13225;47.804;12.116;2024-01-10T13:50:36;-1.70;99.90
25280;DHT22;13225;47.804;12.116;2024-01-10T13:53:01;-1.60;99.90
25280;DHT22;13225;47.804;12.116;2024-01-10T13:55:29;-1.60;99.90
25280;DHT22;13225;47.804;12.116;2024-01-10T13:57:55;-1.50;99.90
25280;DHT22;13225;47.804;12.116;2024-01-10T14:00:22;-1.60;99.90
25280;DHT22;13225;47.804;12.116;2024-01-10T14:02:47;-1.70;99.90
25280;DHT22;13225;47.804;12.116;2024-01-10T14:05:13;-1.60;99.90
25280;DHT22;13225;47.804;12.116;2024-01-10T14:07:39;-1.50;99.90
25280;DHT22;13225;47.804;12.116;2024-01-10T14:10:05;-1.70;99.90
25280;DHT22;13225;47.804;12.116;2024-01-10T14:12:31;-1.70;99.90
25280;DHT22;13225;47.804;12.116;2024-01-10T14:14:57;-1.70;99.90
25280;DHT22;13225;47.804;12.116;2024-01-10T14:17:23;-1.90;99.90
25280;DHT22;13225;47.804;12.116;2024-01-10T14:19:51;-1.90;99.90
25280;DHT22;13225;47.804;12.116;2024-01-10T14:22:17;-1.80;99.90
25280;DHT22;13225;47.804;12.116;2024-01-10T14:24:43;-1.70;99.90
25280;DHT22;13225;47.804;12.116;2024-01-10T14:27:09;-1.70;99.90
25280;DHT22;13225;47.804;12.116;2024-01-10T14:29:37;-1.70;99.90
25280;DHT22;13225;47.804;12.116;2024-01-10T14:32:03;-1.70;99.90
25280;DHT22;13225;47.804;12.116;2024-01-10T14:34:29;-1.70;99.90
25280;DHT22;13225;47.804;12.116;2024-01-10T14:36:54;-1.80;99.90
25280;DHT22;13225;47.804;12.116;2024-01-10T14:39:21;-1.80;99.90
25280;DHT22;13225;47.804;12.116;2024-01-10T14:41:46;-1.80;99.90
25280;DHT22;13225;47.804;12.116;2024-01-10T14:44:12;-1.80;99.90
25280;DHT22;13225;47.804;12.116;2024-01-10T14:46:38;-1.80;99.90
25280;DHT22;13225;47.804;12.116;2024-01-10T14:49:04;-1.80;99.90
25280;DHT22;13225;47.804;12.116;2024-01-10T14:51:29;-1.90;99.90
25280;DHT22;13225;47.804;12.116;2024-01-10T14:53:55;-1.80;99.90
25280;DHT22;13225;47.804;12.116;2024-01-10T14:56:21;-1.90;99.90
25280;DHT22;13225;47.804;12.116;2024-01-10T14:58:46;-1.90;99.90
25280;DHT22;13225;47.804;12.116;2024-01-10T15:01:13;-2.00;99.90
25280;DHT22;13225;47.804;12.116;2024-01-10T15:03:38;-2.00;99.90
25280;DHT22;13225;47.804;12.116;2024-01-10T15:06:05;-2.00;99.90
25280;DHT22;13225;47.804;12.116;2024-01-10T15:08:31;-2.20;99.90
25280;DHT22;13225;47.804;12.116;2024-01-10T15:10:57;-2.20;99.90
25280;DHT22;13225;47.804;12.116;2024-01-10T15:13:22;-2.20;99.90
25280;DHT22;13225;47.804;12.116;2024-01-10T15:15:48;-2.20;99.90
25280;DHT22;13225;47.804;12.116;2024-01-10T15:18:13;-2.40;99.90
25280;DHT22;13225;47.804;12.116;2024-01-10T15:20:40;-2.40;99.90